Weather observations for the past three days for
Hawthorne, Hawthorne Municipal Airport
Metric (Imperial)
Date Time (pdt) Wind (kph) Vis. (km) Weather Sky Cond. Temperature (ºC) Relative Humidity Wind Chill (°C) Heat Index (°C) Pressure Precipitation (cm)
Air Dwpt 6 hour altimeter (cm) sea level (mb) 1 hr 3 hr 6 hr
Max. Min.
04 16:53 W 20 G 37 16.09 Overcast FEW027 OVC080 18.3 10 20 18.3 59% 76.12 1014.8
04 15:53 W 26 G 41 16.09 Mostly Cloudy SCT026 BKN080 19.4 10 55% 76.12 1014.8
04 14:53 W 28 G 41 16.09 Mostly Cloudy FEW023 BKN085 19.4 10.6 57% 76.17 1015.4
04 13:53 W 28 G 43 16.09 Overcast OVC085 19.4 10.6 57% 76.2 1015.8
04 12:53 W 24 G 41 16.09 Fair CLR 20 8.3 47% 76.2 1015.7
04 11:53 W 28 G 35 16.09 A Few Clouds FEW070 18.3 8.3 52% 76.23 1016.1
04 10:53 SW 17 16.09 A Few Clouds FEW029 18.9 9.4 18.9 15 54% 76.23 1016.1
04 09:53 NW 13 G 33 16.09 Fair CLR 17.2 8.9 58% 76.2 1015.9
04 08:53 W 17 16.09 Fair CLR 16.1 8.9 63% 76.17 1015.5
04 07:53 NW 9 16.09 Fair CLR 15.6 9.4 67% 76.15 1015.2
04 06:53 W 11 16.09 Mostly Cloudy BKN070 15 10 72% 76.15 1015.1
04 05:53 W 13 16.09 Overcast OVC065 15.6 10 70% 76.12 1014.7
04 04:53 W 11 16.09 Overcast OVC060 15.6 8.9 16.7 15 65% 76.1 1014.6
04 03:53 W 17 16.09 Overcast OVC060 15.6 10 70% 76.1 1014.4
04 02:53 W 6 16.09 Mostly Cloudy BKN050 15 10.6 75% 76.1 1014.5
04 01:53 W 11 16.09 Fair CLR 15 9.4 69% 76.12 1014.9
04 00:53 W 9 16.09 Overcast OVC060 15.6 9.4 67% 76.17 1015.4
03 23:53 W 22 16.09 Overcast OVC060 16.7 7.8 56% 76.17 1015.5
03 22:53 W 11 16.09 Overcast OVC055 16.1 10 17.8 16.1 67% 76.12 1014.8
03 21:53 W 13 16.09 Overcast OVC060 16.1 10 67% 76.15 1015.1
03 20:53 NW 9 16.09 Overcast OVC055 16.1 11.1 72% 76.12 1014.7
03 19:53 Vrbl 11 16.09 Overcast FEW025 OVC055 16.7 10 65% 76.07 1014.1
03 18:53 W 17 G 30 16.09 Overcast OVC050 16.7 10 65% 76.05 1013.8
03 17:53 W 15 16.09 Overcast OVC050 17.8 10 60% 76 1013.3
03 16:53 NW 15 16.09 Mostly Cloudy BKN050 17.8 11.1 18.9 17.2 65% 76 1012.9
03 15:53 W 22 16.09 Overcast FEW026 OVC046 18.3 10.6 61% 76.02 1013.3
03 14:53 W 19 16.09 Overcast OVC050 18.9 9.4 54% 76.05 1013.8
03 13:53 W 19 16.09 Overcast OVC048 18.9 8.3 50% 76.07 1014.0
03 12:53 W 19 G 30 16.09 Overcast OVC044 18.3 8.3 52% 76.07 1014.2
03 11:53 W 17 16.09 Overcast FEW032 OVC045 18.3 9.4 56% 76.12 1014.6
03 10:53 W 13 16.09 Overcast OVC038 17.2 10 17.2 15.6 63% 76.15 1015.1
03 09:53 W 13 16.09 Overcast OVC034 16.7 10 65% 76.1 1014.5
03 08:53 W 13 16.09 Overcast OVC031 16.1 11.1 72% 76.1 1014.3
03 07:53 SW 7 16.09 Overcast OVC026 16.1 10.6 70% 76.05 1013.9
03 06:53 Calm 16.09 Overcast OVC025 16.1 11.1 72% 76 1013.2
03 05:53 NW 6 16.09 Overcast OVC025 15.6 12.2 80% 75.97 1012.9
03 04:53 SW 6 16.09 Overcast OVC025 16.1 10.6 16.7 15.6 70% 75.95 1012.5
03 03:53 Calm 16.09 Overcast OVC025 16.1 10.6 70% 75.97 1012.8
03 02:53 Calm 16.09 Overcast OVC023 16.1 10 67% 75.97 1012.8
03 01:53 W 7 16.09 Overcast OVC019 16.1 11.1 72% 76.02 1013.4
03 00:53 SW 9 16.09 Overcast OVC017 16.1 11.7 75% 76.02 1013.4
02 23:53 W 7 16.09 Overcast OVC012 16.1 12.8 81% 76 1012.9
02 22:53 W 9 16.09 Overcast OVC011 16.1 12.8 18.3 15.6 81% 76 1013.1
02 21:53 W 11 16.09 Overcast OVC009 16.1 12.8 81% 76 1013.2
02 20:53 W 17 16.09 Overcast OVC010 16.1 12.8 81% 75.92 1012.2
02 19:53 W 13 16.09 Fair CLR 16.1 12.8 81% 75.84 1011.3
02 18:53 W 17 16.09 Fair CLR 17.2 12.2 73% 75.82 1010.8
02 17:53 W 13 16.09 Fair CLR 17.8 12.2 70% 75.82 1010.8
02 16:53 W 17 16.09 Fair CLR 18.3 12.2 19.4 17.2 68% 75.82 1010.8
02 15:53 W 19 16.09 A Few Clouds FEW017 18.9 12.2 65% 75.87 1011.3
02 14:53 W 20 16.09 A Few Clouds FEW017 19.4 12.8 66% 75.97 1012.7
02 13:53 W 19 16.09 Partly Cloudy SCT018 19.4 13.3 68% 76.02 1013.3
02 12:53 W 15 14.48 Overcast OVC015 18.3 13.3 73% 76.05 1013.6
02 11:53 W 15 11.27 Overcast OVC017 18.9 13.3 70% 76.12 1014.6
02 10:53 Calm 9.66 Overcast with Haze OVC013 17.2 13.3 17.2 15.6 78% 76.12 1014.8
02 09:53 Calm 9.66 Overcast with Haze OVC011 16.7 13.3 80% 76.17 1015.4
02 08:53 S 6 11.27 Overcast OVC010 16.1 12.8 81% 76.17 1015.4
02 07:53 Calm 11.27 Overcast OVC010 16.1 12.8 81% 76.12 1014.8
02 06:53 Calm 11.27 Overcast OVC009 15.6 12.8 84% 76.1 1014.5
02 05:53 SW 7 14.48 Overcast OVC009 15.6 12.8 84% 76.07 1014.1
02 04:53 W 9 11.27 Overcast OVC008 15.6 12.8 15.6 15 84% 76.05 1013.8
02 03:53 W 7 11.27 Overcast OVC008 15.6 12.8 84% 76.02 1013.5
02 02:53 SW 6 11.27 Overcast OVC007 15 13.3 90% 76.02 1013.3
02 01:53 W 9 14.48 A Few Clouds FEW015 15 12.8 87% 76.05 1013.6
02 00:53 Calm 16.09 Fair CLR 15.6 12.8 84% 76.07 1014.0
01 23:53 W 7 16.09 Partly Cloudy SCT011 15.6 12.8 84% 76.1 1014.3
01 22:53 W 6 14.48 Overcast OVC010 15.6 12.8 20 15.6 84% 76.07 1014.0
01 21:53 W 11 16.09 Overcast OVC011 16.1 12.8 81% 76.07 1014.0
01 20:53 W 11 16.09 Mostly Cloudy BKN013 16.7 12.8 78% 76.02 1013.4
01 19:53 W 11 16.09 A Few Clouds FEW013 17.2 12.8 76% 75.95 1012.5
01 18:53 W 19 G 31 16.09 Fair CLR 17.8 12.8 73% 75.92 1012.1
01 17:53 W 19 16.09 Fair CLR 19.4 12.8 66% 75.92 1011.9
Date Time (pdt) Wind (kph) Vis. (km) Weather Sky Cond. Air Dwpt Max. Min. Relative Humidity Wind Chill (°C) Heat Index (°C) altimeter (cm) sea level (mb) 1 hr 3 hr 6 hr
6 hour
Temperature (ºC) Pressure Precipitation (cm)